createdAt,value
2023-04-12T00:00:29.600Z,36.93
2023-04-12T00:01:29.633Z,36.91
2023-04-12T00:02:29.785Z,36.86
2023-04-12T00:03:29.860Z,36.95
2023-04-12T00:04:29.921Z,36.92
2023-04-12T00:05:29.807Z,36.88
2023-04-12T00:06:29.851Z,36.93
2023-04-12T00:07:29.900Z,36.88
2023-04-12T00:08:29.947Z,36.90
2023-04-12T00:09:29.992Z,36.91
2023-04-12T00:10:30.031Z,36.87
2023-04-12T00:11:30.079Z,36.87
2023-04-12T00:12:30.131Z,36.91
2023-04-12T00:13:30.175Z,36.90
2023-04-12T00:14:30.226Z,36.87
2023-04-12T00:15:30.263Z,36.83
2023-04-12T00:16:30.330Z,36.86
2023-04-12T00:17:30.397Z,36.85
2023-04-12T00:18:30.419Z,36.85
2023-04-12T00:19:30.491Z,36.87
2023-04-12T00:20:30.545Z,36.85
2023-04-12T00:21:30.573Z,36.80
2023-04-12T00:22:30.630Z,36.83
2023-04-12T00:23:30.672Z,36.79
2023-04-12T00:24:30.730Z,36.82
2023-04-12T00:25:30.780Z,36.83
2023-04-12T00:26:30.816Z,36.82
2023-04-12T00:27:30.862Z,36.82
2023-04-12T00:28:30.914Z,36.83
2023-04-12T00:29:30.971Z,36.81
2023-04-12T00:30:31.004Z,36.82
2023-04-12T00:31:31.086Z,36.78
2023-04-12T00:32:31.148Z,36.80
2023-04-12T00:33:31.152Z,36.77
2023-04-12T00:34:31.187Z,36.75
2023-04-12T00:35:31.295Z,36.78
2023-04-12T00:36:31.287Z,36.73
2023-04-12T00:37:31.334Z,36.74
2023-04-12T00:38:31.381Z,36.73
2023-04-12T00:39:31.432Z,36.73
2023-04-12T00:40:31.477Z,36.74
2023-04-12T00:41:31.535Z,36.76
2023-04-12T00:42:31.573Z,36.74
2023-04-12T00:43:31.628Z,36.74
2023-04-12T00:44:31.671Z,36.73
2023-04-12T00:45:31.716Z,36.71
2023-04-12T00:46:31.821Z,36.77
2023-04-12T00:47:31.830Z,36.73
2023-04-12T00:48:31.882Z,36.69
2023-04-12T00:49:31.907Z,36.70
2023-04-12T00:50:31.961Z,36.69
2023-04-12T00:51:32.019Z,36.71
2023-04-12T00:52:32.056Z,36.70
2023-04-12T00:53:32.118Z,36.69
2023-04-12T00:54:32.138Z,36.69
2023-04-12T00:55:32.196Z,36.69
2023-04-12T00:56:32.253Z,36.68
2023-04-12T00:57:32.348Z,36.68
2023-04-12T00:58:32.343Z,36.66
2023-04-12T00:59:32.405Z,36.71
2023-04-12T01:00:32.465Z,36.64
2023-04-12T01:01:32.510Z,36.66
2023-04-12T01:02:32.721Z,36.63
2023-04-12T01:03:32.817Z,36.68
2023-04-12T01:04:32.644Z,36.66
2023-04-12T01:05:32.706Z,36.68
2023-04-12T01:06:32.748Z,36.65
2023-04-12T01:07:32.809Z,36.64
2023-04-12T01:08:32.874Z,36.63
2023-04-12T01:09:32.895Z,36.67
2023-04-12T01:10:32.942Z,36.68
2023-04-12T01:11:33.012Z,36.63
2023-04-12T01:12:33.059Z,36.66
2023-04-12T01:13:33.126Z,36.65
2023-04-12T01:14:33.159Z,36.63
2023-04-12T01:15:33.202Z,36.66
2023-04-12T01:16:33.306Z,36.60
2023-04-12T01:17:33.308Z,36.61
2023-04-12T01:18:33.363Z,36.61
2023-04-12T01:19:33.419Z,36.59
2023-04-12T01:20:33.458Z,36.59
2023-04-12T01:21:33.506Z,36.56
2023-04-12T01:22:33.554Z,36.55
2023-04-12T01:23:33.622Z,36.56
2023-04-12T01:24:33.674Z,36.60
2023-04-12T01:25:33.700Z,36.58
2023-04-12T01:26:33.762Z,36.58
2023-04-12T01:27:33.800Z,36.56
2023-04-12T01:28:33.849Z,36.55
2023-04-12T01:29:33.904Z,36.58
2023-04-12T01:30:33.952Z,36.56
2023-04-12T01:31:34.081Z,36.54
2023-04-12T01:32:34.080Z,36.52
2023-04-12T01:33:34.094Z,36.54
2023-04-12T01:34:34.144Z,36.54
2023-04-12T01:35:35.440Z,36.55
2023-04-12T01:36:34.252Z,36.51
2023-04-12T01:37:34.278Z,36.50
2023-04-12T01:38:34.320Z,36.49
2023-04-12T01:39:34.374Z,36.53
2023-04-12T01:40:34.414Z,36.48
2023-04-12T01:41:34.467Z,36.48
2023-04-12T01:42:34.518Z,36.47
2023-04-12T01:43:34.560Z,36.47
2023-04-12T01:44:34.609Z,36.45
2023-04-12T01:45:34.737Z,36.46
2023-04-12T01:46:34.696Z,36.43
2023-04-12T01:47:34.775Z,36.43
2023-04-12T01:48:34.788Z,36.39
2023-04-12T01:49:34.822Z,36.39
2023-04-12T01:50:34.868Z,36.38
2023-04-12T01:51:34.994Z,36.37
2023-04-12T01:52:34.956Z,36.41
2023-04-12T01:53:35.004Z,36.38
2023-04-12T01:54:35.050Z,36.36
2023-04-12T01:55:35.077Z,36.33
2023-04-12T01:56:35.114Z,36.32
2023-04-12T01:57:35.157Z,36.34
2023-04-12T01:58:35.195Z,36.34
2023-04-12T01:59:35.234Z,36.33
2023-04-12T02:00:35.290Z,36.32
2023-04-12T02:01:35.469Z,36.29
2023-04-12T02:02:35.523Z,36.28
2023-04-12T02:03:35.493Z,36.28
2023-04-12T02:04:35.440Z,36.26
2023-04-12T02:05:35.484Z,36.23
2023-04-12T02:06:35.536Z,36.23
2023-04-12T02:07:35.565Z,36.25
2023-04-12T02:08:35.609Z,36.25
2023-04-12T02:09:35.636Z,36.22
2023-04-12T02:10:35.680Z,36.22
2023-04-12T02:11:35.733Z,36.18
2023-04-12T02:12:35.764Z,36.21
2023-04-12T02:13:35.816Z,36.16
2023-04-12T02:14:35.873Z,36.15
2023-04-12T02:15:35.884Z,36.17
2023-04-12T02:16:35.973Z,36.17
2023-04-12T02:17:35.975Z,36.16
2023-04-12T02:18:35.987Z,36.16
2023-04-12T02:19:36.030Z,36.16
2023-04-12T02:20:36.086Z,36.17
2023-04-12T02:21:36.107Z,36.12
2023-04-12T02:22:36.138Z,36.12
2023-04-12T02:23:36.174Z,36.12
2023-04-12T02:24:36.217Z,36.10
2023-04-12T02:25:36.252Z,36.07
2023-04-12T02:26:36.304Z,36.07
2023-04-12T02:27:36.337Z,36.07
2023-04-12T02:28:36.563Z,36.10
2023-04-12T02:29:36.386Z,36.07
2023-04-12T02:30:36.441Z,36.07
2023-04-12T02:31:36.461Z,36.07
2023-04-12T02:32:36.529Z,36.07
2023-04-12T02:33:36.536Z,36.03
2023-04-12T02:34:36.768Z,36.05
2023-04-12T02:35:36.636Z,36.02
2023-04-12T02:36:36.633Z,36.02
2023-04-12T02:37:36.664Z,36.05
2023-04-12T02:38:36.702Z,36.05
2023-04-12T02:39:36.727Z,36.00
2023-04-12T02:40:36.769Z,36.00
2023-04-12T02:41:36.802Z,36.02
2023-04-12T02:42:36.845Z,36.00
2023-04-12T02:43:36.874Z,36.02
2023-04-12T02:44:36.915Z,36.00
2023-04-12T02:45:36.951Z,36.00
2023-04-12T02:46:37.012Z,35.99
2023-04-12T02:47:37.016Z,36.01
2023-04-12T02:48:37.047Z,36.00
2023-04-12T02:49:37.091Z,35.99
2023-04-12T02:50:37.122Z,35.99
2023-04-12T02:51:37.170Z,35.96
2023-04-12T02:52:37.202Z,35.95
2023-04-12T02:53:37.224Z,35.95
2023-04-12T02:54:37.267Z,35.96
2023-04-12T02:55:37.306Z,35.95
2023-04-12T02:56:37.350Z,35.91
2023-04-12T02:57:37.382Z,35.89
2023-04-12T02:58:37.408Z,35.96
2023-04-12T02:59:37.447Z,35.91
2023-04-12T03:00:37.474Z,35.91
2023-04-12T03:01:37.577Z,35.93
2023-04-12T03:02:37.722Z,35.91
2023-04-12T03:03:37.706Z,35.93
2023-04-12T03:04:37.616Z,35.93
2023-04-12T03:05:37.647Z,35.90
2023-04-12T03:06:37.686Z,35.87
2023-04-12T03:07:37.726Z,35.91
2023-04-12T03:08:37.737Z,35.89
2023-04-12T03:09:37.773Z,35.86
2023-04-12T03:10:37.806Z,35.86
2023-04-12T03:11:37.822Z,35.87
2023-04-12T03:12:37.865Z,35.88
2023-04-12T03:13:37.901Z,35.86
2023-04-12T03:14:37.937Z,35.84
2023-04-12T03:15:37.972Z,35.86
2023-04-12T03:16:37.998Z,35.85
2023-04-12T03:17:38.077Z,35.83
2023-04-12T03:18:38.051Z,35.82
2023-04-12T03:19:38.080Z,35.84
2023-04-12T03:20:38.116Z,35.81
2023-04-12T03:21:38.159Z,35.84
2023-04-12T03:22:38.188Z,35.80
2023-04-12T03:23:38.207Z,35.83
2023-04-12T03:24:38.238Z,35.79
2023-04-12T03:25:38.280Z,35.84
2023-04-12T03:26:38.303Z,35.79
2023-04-12T03:27:38.330Z,35.85
2023-04-12T03:28:38.364Z,35.81
2023-04-12T03:29:38.395Z,35.79
2023-04-12T03:30:38.429Z,35.79
2023-04-12T03:31:38.593Z,35.80
2023-04-12T03:32:38.510Z,35.79
2023-04-12T03:33:38.531Z,35.77
2023-04-12T03:34:38.560Z,35.75
2023-04-12T03:35:38.637Z,35.76
2023-04-12T03:36:38.633Z,35.76
2023-04-12T03:37:38.646Z,35.71
2023-04-12T03:38:38.674Z,35.77
2023-04-12T03:39:38.694Z,35.79
2023-04-12T03:40:38.710Z,35.73
2023-04-12T03:41:38.760Z,35.77
2023-04-12T03:42:38.778Z,35.75
2023-04-12T03:43:38.809Z,35.78
2023-04-12T03:44:38.829Z,35.76
2023-04-12T03:45:38.860Z,35.78
2023-04-12T03:46:38.912Z,35.71
2023-04-12T03:47:38.993Z,35.71
2023-04-12T03:48:38.938Z,35.71
2023-04-12T03:49:38.971Z,35.74
2023-04-12T03:50:38.996Z,35.71
2023-04-12T03:51:39.020Z,35.68
2023-04-12T03:52:39.099Z,35.71
2023-04-12T03:53:39.078Z,35.71
2023-04-12T03:54:39.109Z,35.69
2023-04-12T03:55:39.137Z,35.73
2023-04-12T03:56:39.170Z,35.71
2023-04-12T03:57:39.199Z,35.73
2023-04-12T03:58:39.238Z,35.69
2023-04-12T03:59:39.261Z,35.68
2023-04-12T04:00:39.281Z,35.68
2023-04-12T04:01:39.326Z,35.65
2023-04-12T04:02:39.418Z,35.69
2023-04-12T04:03:39.542Z,35.68
2023-04-12T04:04:39.408Z,35.66
2023-04-12T04:05:39.442Z,35.73
2023-04-12T04:06:39.480Z,35.65
2023-04-12T04:07:39.496Z,35.63
2023-04-12T04:08:39.529Z,35.68
2023-04-12T04:09:39.563Z,35.70
2023-04-12T04:10:39.596Z,35.67
2023-04-12T04:11:39.629Z,35.65
2023-04-12T04:12:39.659Z,35.65
2023-04-12T04:13:39.697Z,35.70
2023-04-12T04:14:39.723Z,35.62
2023-04-12T04:15:39.745Z,35.64
2023-04-12T04:16:39.797Z,35.62
2023-04-12T04:17:39.842Z,35.61
2023-04-12T04:18:39.861Z,35.62
2023-04-12T04:19:39.873Z,35.62
2023-04-12T04:20:39.915Z,35.61
2023-04-12T04:21:39.958Z,35.61
2023-04-12T04:22:39.966Z,35.61
2023-04-12T04:23:40.010Z,35.61
2023-04-12T04:24:40.061Z,35.61
2023-04-12T04:25:40.076Z,35.60
2023-04-12T04:26:40.096Z,35.60
2023-04-12T04:27:40.130Z,35.61
2023-04-12T04:28:40.166Z,35.60
2023-04-12T04:29:40.192Z,35.56
2023-04-12T04:30:40.222Z,35.56
2023-04-12T04:31:40.293Z,35.59
2023-04-12T04:32:40.299Z,35.59
2023-04-12T04:33:40.330Z,35.60
2023-04-12T04:34:40.364Z,35.57
2023-04-12T04:35:40.416Z,35.57
2023-04-12T04:36:40.417Z,35.54
2023-04-12T04:37:40.458Z,35.59
2023-04-12T04:38:40.513Z,35.55
2023-04-12T04:39:40.496Z,35.53
2023-04-12T04:40:40.534Z,35.56
2023-04-12T04:41:40.572Z,35.54
2023-04-12T04:42:40.590Z,35.56
2023-04-12T04:43:40.630Z,35.55
2023-04-12T04:44:40.661Z,35.57
2023-04-12T04:45:40.720Z,35.52
2023-04-12T04:46:40.709Z,35.52
2023-04-12T04:47:40.808Z,35.54
2023-04-12T04:48:40.768Z,35.54
2023-04-12T04:49:40.802Z,35.49
2023-04-12T04:50:40.821Z,35.52
2023-04-12T04:51:40.839Z,35.47
2023-04-12T04:52:40.889Z,35.49
2023-04-12T04:53:40.923Z,35.49
2023-04-12T04:54:40.934Z,35.49
2023-04-12T04:55:40.960Z,35.54
2023-04-12T04:56:41.003Z,35.49
2023-04-12T04:57:41.020Z,35.54
2023-04-12T04:58:41.045Z,35.49
2023-04-12T04:59:41.068Z,35.49
2023-04-12T05:00:41.097Z,35.45
2023-04-12T05:01:41.316Z,35.47
2023-04-12T05:02:41.351Z,35.47
2023-04-12T05:03:41.291Z,35.45
2023-04-12T05:04:41.196Z,35.45
2023-04-12T05:05:41.225Z,35.45
2023-04-12T05:06:41.247Z,35.46
2023-04-12T05:07:41.274Z,35.41
2023-04-12T05:08:41.301Z,35.45
2023-04-12T05:09:41.307Z,35.44
2023-04-12T05:10:41.382Z,35.45
2023-04-12T05:11:41.404Z,35.41
2023-04-12T05:12:41.404Z,35.43
2023-04-12T05:13:41.422Z,35.41
2023-04-12T05:14:47.097Z,35.40
2023-04-12T05:15:42.446Z,35.44
2023-04-12T05:16:41.499Z,35.41
2023-04-12T05:17:41.444Z,35.40
2023-04-12T05:18:41.431Z,35.44
2023-04-12T05:19:41.432Z,35.41
2023-04-12T05:20:41.419Z,35.42
2023-04-12T05:21:41.406Z,35.45
2023-04-12T05:22:41.399Z,35.97
2023-04-12T05:23:41.394Z,36.77
2023-04-12T05:24:41.391Z,36.63
2023-04-12T05:25:41.399Z,36.55
2023-04-12T05:26:41.430Z,36.82
2023-04-12T05:27:41.414Z,36.92
2023-04-12T05:28:41.412Z,36.80
2023-04-12T05:29:41.388Z,36.85
2023-04-12T05:30:41.423Z,36.88
2023-04-12T05:31:41.424Z,36.78
2023-04-12T05:32:42.210Z,36.55
2023-04-12T05:33:41.393Z,36.69
2023-04-12T05:34:41.442Z,36.74
2023-04-12T05:35:42.284Z,36.75
2023-04-12T05:36:41.383Z,36.81
2023-04-12T05:37:41.373Z,36.85
2023-04-12T05:38:41.368Z,36.85
2023-04-12T05:39:41.364Z,36.88
2023-04-12T05:40:41.366Z,36.97
2023-04-12T05:41:41.368Z,37.06
2023-04-12T05:42:41.375Z,37.06
2023-04-12T05:43:41.380Z,37.07
2023-04-12T05:44:41.400Z,37.26
2023-04-12T05:45:41.479Z,37.28
2023-04-12T05:46:41.581Z,37.30
2023-04-12T05:47:41.530Z,37.34
2023-04-12T05:48:41.485Z,37.18
2023-04-12T05:49:41.529Z,37.27
2023-04-12T05:50:41.583Z,37.31
2023-04-12T05:51:41.925Z,37.30
2023-04-12T05:52:41.577Z,37.31
2023-04-12T05:53:41.609Z,37.42
2023-04-12T05:54:41.664Z,37.44
2023-04-12T05:55:41.641Z,37.40
2023-04-12T05:56:41.661Z,37.41
2023-04-12T05:57:41.698Z,37.54
2023-04-12T05:58:41.704Z,37.50
2023-04-12T05:59:41.722Z,37.47
2023-04-12T06:00:41.754Z,37.59
2023-04-12T06:01:41.784Z,37.52
2023-04-12T06:02:41.921Z,37.64
2023-04-12T06:03:42.010Z,37.55
2023-04-12T06:04:50.254Z,37.53
2023-04-12T06:05:42.861Z,37.54
2023-04-12T06:06:41.822Z,37.52
2023-04-12T06:07:41.802Z,37.52
2023-04-12T06:08:41.802Z,37.48
2023-04-12T06:09:41.782Z,37.56
2023-04-12T06:10:41.783Z,37.50
2023-04-12T06:11:41.821Z,37.55
2023-04-12T06:12:41.753Z,37.47
2023-04-12T06:13:41.759Z,37.42
2023-04-12T06:14:41.750Z,37.39
2023-04-12T06:15:41.752Z,37.44
2023-04-12T06:16:42.314Z,37.43
2023-04-12T06:17:41.761Z,37.36
2023-04-12T06:18:41.732Z,37.43
2023-04-12T06:19:41.711Z,37.42
2023-04-12T06:20:42.284Z,37.40
2023-04-12T06:21:41.722Z,37.37
2023-04-12T06:22:41.690Z,37.42
2023-04-12T06:23:41.701Z,37.39
2023-04-12T06:24:41.707Z,37.37
2023-04-12T06:25:41.725Z,38.01
2023-04-12T06:26:41.745Z,37.96
2023-04-12T06:27:41.848Z,38.39
2023-04-12T06:28:41.754Z,38.95
2023-04-12T06:29:42.709Z,39.39
2023-04-12T06:30:41.743Z,40.21
2023-04-12T06:31:41.805Z,40.53
2023-04-12T06:32:41.735Z,40.63
2023-04-12T06:33:41.736Z,41.11
2023-04-12T06:34:41.740Z,41.12
2023-04-12T06:35:41.875Z,41.34
2023-04-12T06:36:41.808Z,41.79
2023-04-12T06:37:41.864Z,42.34
2023-04-12T06:38:42.851Z,41.89
2023-04-12T06:39:41.960Z,41.80
2023-04-12T06:40:42.015Z,41.89
2023-04-12T06:41:42.074Z,42.05
2023-04-12T06:42:42.109Z,42.32
2023-04-12T06:43:42.149Z,42.65
2023-04-12T06:44:42.196Z,42.84
2023-04-12T06:45:42.230Z,42.61
2023-04-12T06:46:42.293Z,42.41
2023-04-12T06:47:42.406Z,42.44
2023-04-12T06:48:42.367Z,42.55
2023-04-12T06:49:42.399Z,42.61
2023-04-12T06:50:42.413Z,42.78
2023-04-12T06:51:42.462Z,42.94
2023-04-12T06:52:42.489Z,43.01
2023-04-12T06:53:42.524Z,43.01
2023-04-12T06:54:42.641Z,43.28
2023-04-12T06:55:42.566Z,43.22
2023-04-12T06:56:42.610Z,43.09
2023-04-12T06:57:42.648Z,43.17
2023-04-12T06:58:42.655Z,43.19
2023-04-12T06:59:42.696Z,43.32
2023-04-12T07:00:42.732Z,43.46
2023-04-12T07:01:43.580Z,43.48
2023-04-12T07:02:42.946Z,43.53
2023-04-12T07:03:43.050Z,43.53
2023-04-12T07:04:42.840Z,43.68
2023-04-12T07:05:42.882Z,43.81
2023-04-12T07:06:42.902Z,43.87
2023-04-12T07:07:42.940Z,43.85
2023-04-12T07:08:42.945Z,43.97
2023-04-12T07:09:42.972Z,43.90
2023-04-12T07:10:42.991Z,44.17
2023-04-12T07:11:43.008Z,44.32
2023-04-12T07:12:43.021Z,44.12
2023-04-12T07:13:43.044Z,44.24
2023-04-12T07:14:44.630Z,44.31
2023-04-12T07:15:43.069Z,40.66
2023-04-12T07:16:43.128Z,38.99
2023-04-12T07:17:43.165Z,39.65
2023-04-12T07:18:43.170Z,36.37
2023-04-12T07:19:43.212Z,34.65
2023-04-12T07:20:43.225Z,33.74
2023-04-12T07:21:43.256Z,32.71
2023-04-12T07:22:43.304Z,33.45
2023-04-12T07:23:43.373Z,34.02
2023-04-12T07:24:43.453Z,34.51
2023-04-12T07:25:43.530Z,35.50
2023-04-12T07:26:43.583Z,36.22
2023-04-12T07:27:43.668Z,37.04
2023-04-12T07:28:43.691Z,37.11
2023-04-12T07:29:43.705Z,37.67
2023-04-12T07:30:43.729Z,37.99
2023-04-12T07:31:43.725Z,38.18
2023-04-12T07:32:43.767Z,38.58
2023-04-12T07:33:43.825Z,38.89
2023-04-12T07:34:43.878Z,38.94
2023-04-12T07:35:43.890Z,39.04
2023-04-12T07:36:43.904Z,39.11
2023-04-12T07:37:43.938Z,39.15
2023-04-12T07:38:44.007Z,39.34
2023-04-12T07:39:44.043Z,39.40
2023-04-12T07:40:44.067Z,39.48
2023-04-12T07:41:44.078Z,39.44
2023-04-12T07:42:44.109Z,39.65
2023-04-12T07:43:44.133Z,39.65
2023-04-12T07:44:44.161Z,39.83
2023-04-12T07:45:44.245Z,39.82
2023-04-12T07:46:44.195Z,39.97
2023-04-12T07:47:44.301Z,39.96
2023-04-12T07:48:44.224Z,39.99
2023-04-12T07:49:44.222Z,40.01
2023-04-12T07:50:44.215Z,40.24
2023-04-12T07:51:44.214Z,40.41
2023-04-12T07:52:44.245Z,40.44
2023-04-12T07:53:44.222Z,40.54
2023-04-12T07:54:44.221Z,40.49
2023-04-12T07:55:44.234Z,40.81
2023-04-12T07:56:44.212Z,40.52
2023-04-12T07:57:44.249Z,40.84
2023-04-12T07:58:44.203Z,41.21
2023-04-12T07:59:44.190Z,41.30
2023-04-12T08:00:44.184Z,41.34
2023-04-12T08:01:44.197Z,41.53
2023-04-12T08:02:44.294Z,41.58
2023-04-12T08:03:44.264Z,41.53
2023-04-12T08:04:44.161Z,41.83
2023-04-12T08:05:44.166Z,41.92
2023-04-12T08:06:44.101Z,41.95
2023-04-12T08:07:44.091Z,42.13
2023-04-12T08:08:44.075Z,42.06
2023-04-12T08:09:44.048Z,42.34
2023-04-12T08:10:44.034Z,42.80
2023-04-12T08:11:44.012Z,42.14
2023-04-12T08:12:44.005Z,42.47
2023-04-12T08:13:44.070Z,42.43
2023-04-12T08:14:44.407Z,41.76
2023-04-12T08:15:43.991Z,41.98
2023-04-12T08:16:43.915Z,41.52
2023-04-12T08:17:44.002Z,40.62
2023-04-12T08:18:43.889Z,41.40
2023-04-12T08:19:43.854Z,41.29
2023-04-12T08:20:43.859Z,40.95
2023-04-12T08:21:43.790Z,40.86
2023-04-12T08:22:43.767Z,40.73
2023-04-12T08:23:43.740Z,40.93
2023-04-12T08:24:43.804Z,40.78
2023-04-12T08:25:43.697Z,39.97
2023-04-12T08:26:43.645Z,39.96
2023-04-12T08:27:43.626Z,40.49
2023-04-12T08:28:43.592Z,40.78
2023-04-12T08:29:43.647Z,41.09
2023-04-12T08:30:43.542Z,41.10
2023-04-12T08:31:43.574Z,41.09
2023-04-12T08:32:43.595Z,41.37
2023-04-12T08:33:43.473Z,41.33
2023-04-12T08:34:44.869Z,41.35
2023-04-12T08:35:43.694Z,41.46
2023-04-12T08:36:43.591Z,41.53
2023-04-12T08:37:43.576Z,41.63
2023-04-12T08:38:46.252Z,41.86
2023-04-12T08:39:43.504Z,42.02
2023-04-12T08:40:43.479Z,42.08
2023-04-12T08:41:43.453Z,42.25
2023-04-12T08:42:43.399Z,42.31
2023-04-12T08:43:43.371Z,42.74
2023-04-12T08:44:43.335Z,42.68
2023-04-12T08:45:43.305Z,42.73
2023-04-12T08:46:43.294Z,42.91
2023-04-12T08:47:43.316Z,43.24
2023-04-12T08:48:43.192Z,43.14
2023-04-12T08:49:43.158Z,43.42
2023-04-12T08:50:43.121Z,43.54
2023-04-12T08:51:43.082Z,43.72
2023-04-12T08:52:43.063Z,43.53
2023-04-12T08:53:43.056Z,43.82
2023-04-12T08:54:42.984Z,43.97
2023-04-12T08:55:42.938Z,44.16
2023-04-12T08:56:42.906Z,44.04
2023-04-12T08:57:42.863Z,43.86
2023-04-12T08:58:42.828Z,44.10
2023-04-12T08:59:42.760Z,44.08
2023-04-12T09:00:42.720Z,44.04
2023-04-12T09:01:42.800Z,44.08
2023-04-12T09:02:42.888Z,44.26
2023-04-12T09:03:42.705Z,44.25
2023-04-12T09:04:42.753Z,44.46
2023-04-12T09:05:42.540Z,44.64
2023-04-12T09:06:42.469Z,44.86
2023-04-12T09:09:01.520Z,45.26
2023-04-12T09:10:01.455Z,45.22
2023-04-12T09:11:01.431Z,45.15
2023-04-12T09:12:01.412Z,45.26
2023-04-12T09:13:01.453Z,45.30
2023-04-12T09:14:08.406Z,45.48
2023-04-12T09:15:01.389Z,45.40
2023-04-12T09:16:01.384Z,45.83
2023-04-12T09:17:01.398Z,45.66
2023-04-12T09:18:01.380Z,45.53
2023-04-12T09:19:01.370Z,45.62
2023-04-12T09:20:01.348Z,45.49
2023-04-12T09:21:01.342Z,45.52
2023-04-12T09:22:01.337Z,45.60
2023-04-12T09:23:01.337Z,45.53
2023-04-12T09:24:01.332Z,45.59
2023-04-12T09:25:01.317Z,45.66
2023-04-12T09:26:01.310Z,45.58
2023-04-12T09:27:01.303Z,45.61
2023-04-12T09:28:01.291Z,45.60
2023-04-12T09:29:01.320Z,45.61
2023-04-12T09:30:01.319Z,45.61
2023-04-12T09:31:01.345Z,45.60
2023-04-12T09:32:01.320Z,45.54
2023-04-12T09:33:01.341Z,45.51
2023-04-12T09:34:01.300Z,45.51
2023-04-12T09:35:01.305Z,45.50
2023-04-12T09:36:01.369Z,45.46
2023-04-12T09:37:02.157Z,45.41
2023-04-12T09:38:01.278Z,45.35
2023-04-12T09:39:01.285Z,45.33
2023-04-12T09:40:01.286Z,45.37
2023-04-12T09:41:01.321Z,45.31
2023-04-12T09:42:01.339Z,45.31
2023-04-12T09:43:01.410Z,45.25
2023-04-12T09:44:01.464Z,45.26
2023-04-12T09:45:01.686Z,45.26
2023-04-12T09:46:01.614Z,45.23
2023-04-12T09:47:01.630Z,45.23
2023-04-12T09:48:01.773Z,45.22
2023-04-12T09:49:01.740Z,45.11
2023-04-12T09:50:01.752Z,45.12
2023-04-12T09:51:01.769Z,45.17
2023-04-12T09:52:01.898Z,45.12
2023-04-12T09:53:01.917Z,45.09
2023-04-12T09:54:01.956Z,45.07
2023-04-12T09:55:02.003Z,45.10
2023-04-12T09:56:02.011Z,45.10
2023-04-12T09:57:02.048Z,45.06
2023-04-12T09:58:02.107Z,45.07
2023-04-12T09:59:02.188Z,45.02
2023-04-12T10:00:02.181Z,45.05
2023-04-12T10:01:02.230Z,44.96
2023-04-12T10:02:02.333Z,44.99
2023-04-12T10:03:02.413Z,44.91
2023-04-12T10:04:02.996Z,44.90
2023-04-12T10:05:02.471Z,44.89
2023-04-12T10:06:02.407Z,44.84
2023-04-12T10:07:02.451Z,44.80
2023-04-12T10:08:02.495Z,44.77
2023-04-12T10:09:02.531Z,44.72
2023-04-12T10:10:02.613Z,44.69
2023-04-12T10:11:02.691Z,44.71
2023-04-12T10:12:02.732Z,44.69
2023-04-12T10:13:02.829Z,44.70
2023-04-12T10:14:02.865Z,44.67
2023-04-12T10:15:02.940Z,44.63
2023-04-12T10:16:03.063Z,44.59
2023-04-12T10:17:03.099Z,44.56
2023-04-12T10:18:03.231Z,44.57
2023-04-12T10:19:03.246Z,44.53
2023-04-12T10:20:03.352Z,44.53
2023-04-12T10:21:03.428Z,44.44
2023-04-12T10:22:03.636Z,44.40
2023-04-12T10:23:03.549Z,44.41
2023-04-12T10:24:03.574Z,44.34
2023-04-12T10:25:03.629Z,44.33
2023-04-12T10:26:03.679Z,44.29
2023-04-12T10:27:03.733Z,44.29
2023-04-12T10:28:03.820Z,44.23
2023-04-12T10:29:03.886Z,44.23
2023-04-12T10:30:03.933Z,44.18
2023-04-12T10:31:04.046Z,44.13
2023-04-12T10:32:04.078Z,44.13
2023-04-12T10:33:04.194Z,44.08
2023-04-12T10:34:04.189Z,44.08
2023-04-12T10:35:04.264Z,44.03
2023-04-12T10:36:04.525Z,43.98
2023-04-12T10:37:04.446Z,44.02
2023-04-12T10:38:04.592Z,43.91
2023-04-12T10:39:04.579Z,43.89
2023-04-12T10:40:04.676Z,43.89
2023-04-12T10:41:04.726Z,43.83
2023-04-12T10:42:04.799Z,43.82
2023-04-12T10:43:04.906Z,43.78
2023-04-12T10:44:04.952Z,43.83
2023-04-12T10:45:05.012Z,43.77
2023-04-12T10:46:05.158Z,43.78
2023-04-12T10:47:05.721Z,43.73
2023-04-12T10:48:05.224Z,43.75
2023-04-12T10:49:05.275Z,43.73
2023-04-12T10:50:06.098Z,43.67
2023-04-12T10:51:05.411Z,43.62
2023-04-12T10:52:05.520Z,43.62
2023-04-12T10:53:05.597Z,43.62
2023-04-12T10:54:05.622Z,43.57
2023-04-12T10:55:05.693Z,43.56
2023-04-12T10:56:05.757Z,43.52
2023-04-12T10:57:05.830Z,43.50
2023-04-12T10:58:05.900Z,43.46
2023-04-12T10:59:06.077Z,43.44
2023-04-12T11:00:06.043Z,43.43
2023-04-12T11:01:06.279Z,43.42
2023-04-12T11:02:06.300Z,43.43
2023-04-12T11:03:06.356Z,43.33
2023-04-12T11:04:06.553Z,43.35
2023-04-12T11:05:06.466Z,43.32
2023-04-12T11:06:23.825Z,43.32
2023-04-12T11:07:07.463Z,43.26
2023-04-12T11:08:06.468Z,43.24
2023-04-12T11:09:06.530Z,43.21
2023-04-12T11:10:06.471Z,43.16
2023-04-12T11:11:06.502Z,43.13
2023-04-12T11:12:08.186Z,43.09
2023-04-12T11:13:06.475Z,43.12
2023-04-12T11:14:06.494Z,43.04
2023-04-12T11:15:06.484Z,43.03
2023-04-12T11:16:06.572Z,42.98
2023-04-12T11:17:06.573Z,42.90
2023-04-12T11:18:06.523Z,42.88
2023-04-12T11:19:06.537Z,42.92
2023-04-12T11:20:06.490Z,42.94
2023-04-12T11:21:06.577Z,42.85
2023-04-12T11:22:06.507Z,42.86
2023-04-12T11:23:07.512Z,42.84
2023-04-12T11:24:06.530Z,42.78
2023-04-12T11:25:06.497Z,42.80
2023-04-12T11:26:06.495Z,42.75
2023-04-12T11:27:06.496Z,42.78
2023-04-12T11:28:17.308Z,42.74
2023-04-12T11:29:08.110Z,42.78
2023-04-12T11:30:06.495Z,42.76
2023-04-12T11:31:06.594Z,42.70
2023-04-12T11:32:06.576Z,42.68
2023-04-12T11:33:06.538Z,42.65
2023-04-12T11:34:06.497Z,42.65
2023-04-12T11:35:06.487Z,42.62
2023-04-12T11:36:06.488Z,42.59
2023-04-12T11:37:06.480Z,42.58
2023-04-12T11:38:06.468Z,42.56
2023-04-12T11:39:06.494Z,42.59
2023-04-12T11:40:06.537Z,42.54
2023-04-12T11:41:06.581Z,42.52
2023-04-12T11:42:06.642Z,42.49
2023-04-12T11:43:06.739Z,42.45
2023-04-12T11:44:06.693Z,42.47
2023-04-12T11:45:14.344Z,42.44
2023-04-12T11:46:07.825Z,42.41
2023-04-12T11:47:06.694Z,42.43
2023-04-12T11:48:06.782Z,42.43
2023-04-12T11:49:06.707Z,42.36
2023-04-12T11:50:06.702Z,42.36
2023-04-12T11:51:11.345Z,42.36
2023-04-12T11:52:07.713Z,42.34
2023-04-12T11:53:06.700Z,42.30
2023-04-12T11:54:06.690Z,42.29
2023-04-12T11:55:08.627Z,42.26
2023-04-12T11:56:06.691Z,42.26
2023-04-12T11:57:06.707Z,42.24
2023-04-12T11:58:06.747Z,42.25
2023-04-12T11:59:06.706Z,42.24
2023-04-12T12:00:07.011Z,42.23
2023-04-12T12:01:06.691Z,42.22
2023-04-12T12:02:21.223Z,42.22
2023-04-12T12:03:08.846Z,42.23
2023-04-12T12:04:07.006Z,42.22
2023-04-12T12:05:07.890Z,42.21
2023-04-12T12:06:06.990Z,42.17
2023-04-12T12:07:07.003Z,42.16
2023-04-12T12:08:06.846Z,42.14
2023-04-12T12:09:06.877Z,42.13
2023-04-12T12:10:06.909Z,42.12
2023-04-12T12:11:08.727Z,42.12
2023-04-12T12:12:07.020Z,42.14
2023-04-12T12:13:07.060Z,42.09
2023-04-12T12:14:07.106Z,42.03
2023-04-12T12:15:07.210Z,42.05
2023-04-12T12:16:07.259Z,42.02
2023-04-12T12:17:07.211Z,42.02
2023-04-12T12:18:07.293Z,41.96
2023-04-12T12:19:07.301Z,41.93
2023-04-12T12:20:07.364Z,41.91
2023-04-12T12:21:07.431Z,41.88
2023-04-12T12:22:07.476Z,41.84
2023-04-12T12:23:07.538Z,41.80
2023-04-12T12:24:07.593Z,41.83
2023-04-12T12:25:07.663Z,41.75
2023-04-12T12:26:18.535Z,41.78
2023-04-12T12:27:08.800Z,41.78
2023-04-12T12:28:07.822Z,41.74
2023-04-12T12:29:07.712Z,41.71
2023-04-12T12:30:07.731Z,41.71
2023-04-12T12:31:07.717Z,41.65
2023-04-12T12:32:07.705Z,41.65
2023-04-12T12:33:07.839Z,41.66
2023-04-12T12:34:09.388Z,41.62
2023-04-12T12:35:07.701Z,41.59
2023-04-12T12:36:07.779Z,41.57
2023-04-12T12:37:07.816Z,41.64
2023-04-12T12:38:07.870Z,41.62
2023-04-12T12:39:07.983Z,41.61
2023-04-12T12:40:08.016Z,41.58
2023-04-12T12:41:08.070Z,41.56
2023-04-12T12:42:08.109Z,41.57
2023-04-12T12:43:08.176Z,41.52
2023-04-12T12:44:08.535Z,41.54
2023-04-12T12:45:08.291Z,41.53
2023-04-12T12:46:08.431Z,41.49
2023-04-12T12:47:14.056Z,41.52
2023-04-12T12:48:09.508Z,41.54
2023-04-12T12:49:08.426Z,41.47
2023-04-12T12:50:08.490Z,41.47
2023-04-12T12:51:08.440Z,41.43
2023-04-12T12:52:08.438Z,41.45
2023-04-12T12:53:08.438Z,41.42
2023-04-12T12:54:08.436Z,41.38